createdAt,value
2022-09-05T00:04:39.588Z,70.00
2022-09-05T00:10:05.899Z,70.20
2022-09-05T00:15:19.133Z,70.40
2022-09-05T00:24:21.022Z,70.40
2022-09-05T00:26:00.566Z,70.00
2022-09-05T00:31:53.815Z,70.00
2022-09-05T00:36:43.108Z,70.10
2022-09-05T00:41:43.598Z,70.10
2022-09-05T00:46:49.971Z,70.50
2022-09-05T00:51:56.258Z,70.40
2022-09-05T00:57:19.234Z,70.60
2022-09-05T01:02:29.566Z,70.80
2022-09-05T01:07:46.622Z,70.70
2022-09-05T01:12:58.798Z,71.60
2022-09-05T01:18:20.791Z,70.60
2022-09-05T01:24:04.942Z,70.90
2022-09-05T01:29:16.895Z,71.10
2022-09-05T01:34:31.400Z,71.20
2022-09-05T01:40:14.921Z,70.80
2022-09-05T01:45:06.190Z,71.00
2022-09-05T01:50:16.268Z,71.20
2022-09-05T01:55:26.925Z,70.80
2022-09-05T02:00:32.700Z,71.40
2022-09-05T02:05:52.142Z,72.50
2022-09-05T02:11:04.692Z,71.50
2022-09-05T02:16:13.509Z,72.00
2022-09-05T02:21:22.361Z,71.60
2022-09-05T02:26:27.319Z,71.80
2022-09-05T02:31:35.210Z,71.70
2022-09-05T02:36:40.970Z,71.70
2022-09-05T02:45:15.040Z,71.60
2022-09-05T02:47:12.341Z,71.50
2022-09-05T02:57:26.978Z,71.60
2022-09-05T02:58:07.915Z,71.90
2022-09-05T03:03:21.274Z,72.00
2022-09-05T03:08:35.587Z,71.90
2022-09-05T03:14:19.291Z,71.80
2022-09-05T03:20:00.637Z,71.90
2022-09-05T03:25:37.030Z,72.20
2022-09-05T03:30:50.116Z,72.10
2022-09-05T03:36:33.091Z,72.30
2022-09-05T03:41:45.860Z,72.40
2022-09-05T03:47:13.783Z,72.30
2022-09-05T03:57:12.796Z,72.50
2022-09-05T03:58:16.473Z,72.30
2022-09-05T04:07:17.653Z,72.40
2022-09-05T04:08:52.997Z,72.60
2022-09-05T04:13:58.438Z,72.40
2022-09-05T04:19:10.078Z,72.50
2022-09-05T04:24:12.793Z,73.00
2022-09-05T04:29:21.022Z,73.90
2022-09-05T04:34:38.616Z,72.90
2022-09-05T04:39:37.566Z,73.00
2022-09-05T04:44:42.431Z,73.10
2022-09-05T04:49:42.910Z,72.80
2022-09-05T04:54:47.186Z,73.20
2022-09-05T05:05:39.356Z,73.20
2022-09-05T05:06:16.112Z,73.40
2022-09-05T05:14:02.624Z,73.70
2022-09-05T05:18:12.787Z,73.90
2022-09-05T05:21:28.813Z,73.90
2022-09-05T05:26:32.908Z,74.40
2022-09-05T05:31:35.464Z,74.40
2022-09-05T05:36:37.986Z,74.60
2022-09-05T05:41:43.656Z,74.70
2022-09-05T05:46:48.094Z,74.80
2022-09-05T05:52:02.715Z,75.30
2022-09-05T05:57:26.572Z,75.80
2022-09-05T06:03:12.022Z,76.20
2022-09-05T06:14:40.377Z,76.70
2022-09-05T06:15:04.671Z,76.50
2022-09-05T06:22:07.211Z,77.00
2022-09-05T06:26:22.762Z,76.90
2022-09-05T06:31:36.462Z,76.20
2022-09-05T06:36:49.022Z,76.60
2022-09-05T06:42:15.077Z,76.40
2022-09-05T06:47:33.895Z,76.70
2022-09-05T06:52:55.501Z,76.70
2022-09-05T06:58:41.904Z,77.20
2022-09-05T07:04:33.231Z,77.50
2022-09-05T07:09:28.573Z,77.20
2022-09-05T07:14:30.022Z,77.70
2022-09-05T07:19:33.214Z,77.50
2022-09-05T07:24:54.365Z,77.70
2022-09-05T07:30:00.933Z,77.70
2022-09-05T07:35:05.048Z,78.20
2022-09-05T07:40:26.085Z,77.50
2022-09-05T07:45:28.094Z,77.50
2022-09-05T07:52:23.513Z,77.40
2022-09-05T07:57:02.496Z,77.30
2022-09-05T08:01:14.551Z,77.20
2022-09-05T08:07:45.543Z,76.80
2022-09-05T08:11:38.986Z,76.20
2022-09-05T08:16:42.072Z,76.10
2022-09-05T08:21:47.401Z,75.90
2022-09-05T08:26:49.008Z,76.60
2022-09-05T08:31:52.661Z,76.00
2022-09-05T08:36:54.139Z,76.10
2022-09-05T08:42:10.649Z,75.80
2022-09-05T08:47:25.544Z,75.50
2022-09-05T08:52:34.306Z,75.80
2022-09-05T08:58:00.234Z,75.40
2022-09-05T09:03:07.133Z,74.70
2022-09-05T09:08:15.691Z,74.90
2022-09-05T09:13:37.782Z,74.80
2022-09-05T09:19:00.394Z,74.50
2022-09-05T09:24:12.503Z,74.70
2022-09-05T09:29:13.279Z,74.10
2022-09-05T09:34:49.320Z,73.60
2022-09-05T09:40:12.526Z,72.70
2022-09-05T09:45:33.391Z,72.60
2022-09-05T09:51:10.190Z,72.20
2022-09-05T09:56:30.662Z,72.20
2022-09-05T10:01:53.203Z,71.40
2022-09-05T10:10:46.169Z,71.20
2022-09-05T10:13:08.047Z,70.10
2022-09-05T10:18:31.579Z,70.10
2022-09-05T10:23:48.275Z,69.70
2022-09-05T10:29:36.647Z,70.00
2022-09-05T10:35:17.696Z,69.70
2022-09-05T10:39:45.429Z,69.60
2022-09-05T10:44:52.774Z,68.60
2022-09-05T10:49:54.388Z,68.90
2022-09-05T10:55:14.176Z,68.60
2022-09-05T11:02:23.923Z,68.20
2022-09-05T11:05:59.371Z,67.60
2022-09-05T11:11:26.038Z,68.30
2022-09-05T11:16:41.720Z,67.00
2022-09-05T11:22:12.106Z,66.60
2022-09-05T11:27:24.639Z,65.70
2022-09-05T11:34:40.162Z,65.40
2022-09-05T11:40:03.623Z,64.60
2022-09-05T11:44:25.778Z,63.60
2022-09-05T11:49:48.455Z,63.00
2022-09-05T11:55:20.821Z,63.30
2022-09-05T12:00:31.383Z,63.40
2022-09-05T12:05:59.185Z,62.60
2022-09-05T12:11:09.647Z,63.80
2022-09-05T12:16:27.237Z,63.90
2022-09-05T12:21:35.678Z,64.10
2022-09-05T12:27:39.965Z,62.90
2022-09-05T12:33:32.310Z,62.20
2022-09-05T12:40:38.474Z,62.30
2022-09-05T12:44:36.224Z,62.20
2022-09-05T12:48:19.516Z,62.80
2022-09-05T12:53:22.909Z,63.50
2022-09-05T13:02:57.876Z,63.20
2022-09-05T13:04:15.738Z,62.90
2022-09-05T13:09:22.308Z,62.90
2022-09-05T13:14:58.995Z,63.30
2022-09-05T13:19:51.355Z,62.30
2022-09-05T13:25:01.008Z,63.10
2022-09-05T13:31:48.315Z,62.90
2022-09-05T13:37:58.444Z,62.80
2022-09-05T13:40:51.287Z,63.20
2022-09-05T13:46:06.480Z,63.00
2022-09-05T13:51:29.764Z,63.00
2022-09-05T13:56:31.201Z,62.70
2022-09-05T14:02:26.829Z,62.70
2022-09-05T14:07:45.985Z,63.60
2022-09-05T14:12:49.729Z,63.30
2022-09-05T14:18:01.712Z,62.90
2022-09-05T14:23:17.737Z,63.00
2022-09-05T14:28:27.950Z,63.20
2022-09-05T14:37:35.910Z,63.20
2022-09-05T14:39:22.952Z,63.50
2022-09-05T14:44:47.503Z,63.20
2022-09-05T14:49:59.718Z,62.80
2022-09-05T15:02:52.384Z,63.00
2022-09-05T15:05:50.182Z,63.20
2022-09-05T15:12:15.727Z,63.40
2022-09-05T15:16:12.957Z,63.40
2022-09-05T15:21:33.614Z,63.20
2022-09-05T15:26:36.096Z,63.20
2022-09-05T15:31:35.824Z,63.40
2022-09-05T15:36:36.651Z,63.50
2022-09-05T15:41:43.450Z,63.40
2022-09-05T15:46:48.357Z,63.50
2022-09-05T15:51:51.263Z,63.90
2022-09-05T15:56:52.473Z,64.00
2022-09-05T16:02:03.046Z,63.90
2022-09-05T16:10:30.316Z,64.30
2022-09-05T16:12:33.396Z,64.40
2022-09-05T16:23:14.768Z,64.60
2022-09-05T16:23:31.195Z,64.40
2022-09-05T16:28:31.649Z,64.40
2022-09-05T16:33:34.548Z,64.90
2022-09-05T16:38:49.781Z,65.10
2022-09-05T16:43:54.228Z,64.90
2022-09-05T16:48:58.526Z,64.60
2022-09-05T16:54:01.490Z,64.70
2022-09-05T16:59:03.056Z,64.70
2022-09-05T17:04:15.999Z,64.70
2022-09-05T17:09:23.071Z,64.60
2022-09-05T17:14:23.622Z,64.70
2022-09-05T17:19:26.331Z,65.10
2022-09-05T17:29:23.975Z,65.10
2022-09-05T17:31:25.173Z,65.00
2022-09-05T17:35:42.561Z,64.70
2022-09-05T17:41:09.335Z,65.30
2022-09-05T17:46:20.152Z,65.40
2022-09-05T17:52:02.102Z,65.40
2022-09-05T17:57:38.648Z,65.00
2022-09-05T18:02:54.077Z,65.10
2022-09-05T18:07:58.608Z,65.60
2022-09-05T18:13:32.353Z,65.30
2022-09-05T18:19:28.967Z,65.50
2022-09-05T18:24:03.856Z,65.70
2022-09-05T18:29:06.191Z,65.90
2022-09-05T18:34:46.648Z,65.90
2022-09-05T18:39:46.450Z,66.20
2022-09-05T18:44:48.084Z,66.20
2022-09-05T18:50:21.592Z,66.30
2022-09-05T18:56:09.736Z,66.30
2022-09-05T19:00:46.668Z,66.30
2022-09-05T19:05:50.858Z,66.60
2022-09-05T19:10:58.733Z,66.70
2022-09-05T19:16:42.465Z,66.90
2022-09-05T19:21:22.753Z,66.90
2022-09-05T19:26:34.818Z,67.30
2022-09-05T19:37:11.017Z,67.20
2022-09-05T19:47:31.626Z,67.30
2022-09-05T19:48:07.494Z,67.70
2022-09-05T19:53:05.956Z,67.20
2022-09-05T19:58:19.395Z,67.60
2022-09-05T20:03:22.519Z,67.50
2022-09-05T20:08:32.277Z,67.90
2022-09-05T20:13:32.138Z,67.90
2022-09-05T20:18:39.458Z,67.50
2022-09-05T20:23:39.938Z,68.20
2022-09-05T20:28:41.531Z,68.20
2022-09-05T20:33:45.791Z,67.90
2022-09-05T20:43:22.292Z,68.20
2022-09-05T20:44:22.903Z,67.90
2022-09-05T20:54:15.417Z,68.00
2022-09-05T20:54:47.223Z,68.60
2022-09-05T20:59:48.278Z,68.70
2022-09-05T21:05:19.951Z,68.70
2022-09-05T21:10:27.622Z,69.20
2022-09-05T21:15:52.772Z,69.50
2022-09-05T21:20:56.333Z,68.90
2022-09-05T21:25:56.320Z,68.80
2022-09-05T21:30:57.534Z,69.10
2022-09-05T21:36:01.154Z,68.50
2022-09-05T21:41:02.458Z,69.10
2022-09-05T21:47:40.084Z,69.50
2022-09-05T21:51:27.435Z,69.00
2022-09-05T21:59:19.802Z,69.40
2022-09-05T22:01:53.185Z,69.80
2022-09-05T22:06:54.090Z,69.40
2022-09-05T22:11:52.695Z,69.70
2022-09-05T22:16:56.086Z,69.30
2022-09-05T22:21:57.859Z,69.30
2022-09-05T22:27:11.371Z,70.00
2022-09-05T22:32:12.534Z,70.40
2022-09-05T22:37:10.870Z,70.00
2022-09-05T22:42:10.883Z,70.30
2022-09-05T22:47:10.074Z,69.90
2022-09-05T22:52:10.403Z,69.70
2022-09-05T22:57:08.728Z,71.50
2022-09-05T23:02:07.095Z,70.50
2022-09-05T23:07:05.496Z,69.80
2022-09-05T23:12:05.618Z,70.90
2022-09-05T23:17:03.921Z,70.90
2022-09-05T23:22:02.180Z,70.30
2022-09-05T23:27:00.678Z,70.50
2022-09-05T23:32:00.387Z,71.00
2022-09-05T23:36:58.668Z,71.20
2022-09-05T23:41:57.001Z,69.90
2022-09-05T23:46:55.283Z,70.90
2022-09-05T23:51:55.827Z,71.00
2022-09-05T23:56:54.158Z,70.90
